createdAt,value
2022-11-28T00:00:02.277Z,6.5
2022-11-28T00:15:00.834Z,6.4
2022-11-28T00:25:15.395Z,6.5
2022-11-28T00:30:00.551Z,6.5
2022-11-28T00:50:00.649Z,6.5
2022-11-28T01:00:05.852Z,6.5
2022-11-28T01:15:00.647Z,6.5
2022-11-28T01:30:00.571Z,6.5
2022-11-28T01:45:00.735Z,6.6
2022-11-28T02:00:02.915Z,6.6
2022-11-28T02:15:00.670Z,6.6
2022-11-28T02:30:00.609Z,6.6
2022-11-28T02:45:00.685Z,6.6
2022-11-28T02:55:00.502Z,6.5
2022-11-28T03:00:02.874Z,6.5
2022-11-28T03:15:00.679Z,6.5
2022-11-28T03:25:00.540Z,6.4
2022-11-28T03:30:01.474Z,6.4
2022-11-28T03:45:00.691Z,6.4
2022-11-28T04:00:03.799Z,6.5
2022-11-28T04:15:00.609Z,6.5
2022-11-28T04:25:00.706Z,6.6
2022-11-28T04:30:00.553Z,6.6
2022-11-28T04:40:00.626Z,6.7
2022-11-28T04:45:00.752Z,6.7
2022-11-28T05:00:02.664Z,6.6
2022-11-28T05:10:03.869Z,6.7
2022-11-28T05:15:00.709Z,6.7
2022-11-28T05:25:08.025Z,6.6
2022-11-28T05:30:00.774Z,6.6
2022-11-28T05:45:00.671Z,6.6
2022-11-28T06:00:08.004Z,6.7
2022-11-28T06:15:00.734Z,6.7
2022-11-28T06:30:00.420Z,6.7
2022-11-28T06:40:00.560Z,6.8
2022-11-28T06:45:00.312Z,6.8
2022-11-28T07:00:00.479Z,6.8
2022-11-28T07:15:00.344Z,6.8
2022-11-28T07:30:00.471Z,6.8
2022-11-28T07:35:00.507Z,6.7
2022-11-28T07:45:00.619Z,6.7
2022-11-28T08:00:00.392Z,6.7
2022-11-28T08:10:00.363Z,6.6
2022-11-28T08:15:00.384Z,6.6
2022-11-28T08:30:00.402Z,6.7
2022-11-28T08:45:00.376Z,6.7
2022-11-28T08:55:00.451Z,6.8
2022-11-28T09:00:00.384Z,6.8
2022-11-28T09:15:00.522Z,6.8
2022-11-28T09:30:00.376Z,6.9
2022-11-28T09:45:00.461Z,7.0
2022-11-28T10:00:00.472Z,7.0
2022-11-28T10:05:00.622Z,7.1
2022-11-28T10:15:00.427Z,7.1
2022-11-28T10:30:00.593Z,7.1
2022-11-28T10:35:00.435Z,7.0
2022-11-28T10:45:00.400Z,7.0
2022-11-28T10:55:00.433Z,6.9
2022-11-28T11:00:00.670Z,6.9
2022-11-28T11:15:00.506Z,6.8
2022-11-28T11:30:00.453Z,6.7
2022-11-28T11:45:00.446Z,6.7
2022-11-28T12:00:00.436Z,6.7
2022-11-28T12:05:07.106Z,6.6
2022-11-28T12:15:00.738Z,6.6
2022-11-28T12:20:00.745Z,6.5
2022-11-28T12:30:01.004Z,6.4
2022-11-28T12:40:00.687Z,6.3
2022-11-28T12:45:00.986Z,6.3
2022-11-28T12:55:00.690Z,6.2
2022-11-28T13:00:09.887Z,6.2
2022-11-28T13:10:00.412Z,6.1
2022-11-28T13:15:00.759Z,6.1
2022-11-28T13:30:01.503Z,6.2
2022-11-28T14:00:01.165Z,6.2
2022-11-28T14:15:00.705Z,6.2
2022-11-28T14:20:00.749Z,6.1
2022-11-28T14:30:00.901Z,6.1
2022-11-28T14:45:04.916Z,6.0
2022-11-28T15:00:02.393Z,6.0
2022-11-28T15:05:00.816Z,5.9
2022-11-28T15:15:00.736Z,5.9
2022-11-28T15:25:00.913Z,5.8
2022-11-28T15:30:00.914Z,5.8
2022-11-28T15:45:00.750Z,5.8
2022-11-28T16:00:02.556Z,5.8
2022-11-28T16:15:00.838Z,5.8
2022-11-28T16:20:00.746Z,5.7
2022-11-28T16:30:00.841Z,5.7
2022-11-28T16:45:11.376Z,5.8
2022-11-28T16:55:01.018Z,5.7
2022-11-28T17:00:03.044Z,5.7
2022-11-28T17:15:00.885Z,5.7
2022-11-28T17:30:04.058Z,5.7
2022-11-28T17:35:05.927Z,5.6
2022-11-28T17:45:00.856Z,5.6
2022-11-28T17:55:06.279Z,5.5
2022-11-28T18:00:02.728Z,5.5
2022-11-28T18:05:01.193Z,5.6
2022-11-28T18:15:00.908Z,5.6
2022-11-28T18:30:00.908Z,5.6
2022-11-28T18:45:06.814Z,5.6
2022-11-28T19:00:01.305Z,5.7
2022-11-28T19:15:02.526Z,5.7
2022-11-28T19:30:02.081Z,5.7
2022-11-28T19:45:00.924Z,5.7
2022-11-28T20:00:02.962Z,5.7
2022-11-28T20:15:00.909Z,5.7
2022-11-28T20:20:00.988Z,5.6
2022-11-28T20:30:00.961Z,5.6
2022-11-28T20:45:02.991Z,5.6
2022-11-28T21:00:02.607Z,5.6
2022-11-28T21:15:00.986Z,5.6
2022-11-28T21:30:01.219Z,5.7
2022-11-28T21:45:01.025Z,5.7
2022-11-28T21:55:01.956Z,5.8
2022-11-28T22:00:02.789Z,5.8
2022-11-28T22:15:01.031Z,5.8
2022-11-28T22:30:00.971Z,5.8
2022-11-28T22:45:00.983Z,5.7
2022-11-28T23:00:02.695Z,5.7
2022-11-28T23:15:01.259Z,5.7
2022-11-28T23:25:01.000Z,5.8
2022-11-28T23:30:15.766Z,5.8
2022-11-28T23:45:00.913Z,5.8
2022-11-28T23:55:02.031Z,5.7
